createdAt,value
2022-09-28T00:00:11.853Z,6.07
2022-09-28T00:02:42.470Z,10.05
2022-09-28T00:05:12.661Z,6.35
2022-09-28T00:07:41.975Z,7.43
2022-09-28T00:10:12.392Z,8.32
2022-09-28T00:12:40.388Z,8.98
2022-09-28T00:15:09.419Z,10.00
2022-09-28T00:17:37.347Z,9.38
2022-09-28T00:20:06.312Z,13.35
2022-09-28T00:22:34.209Z,7.15
2022-09-28T00:25:02.139Z,6.72
2022-09-28T00:27:31.399Z,8.15
2022-09-28T00:29:59.947Z,8.43
2022-09-28T00:32:28.556Z,9.45
2022-09-28T00:34:57.632Z,9.88
2022-09-28T00:37:25.466Z,8.93
2022-09-28T00:39:53.415Z,7.43
2022-09-28T00:42:23.415Z,8.05
2022-09-28T00:44:53.627Z,6.65
2022-09-28T00:47:49.812Z,5.63
2022-09-28T00:50:23.132Z,6.28
2022-09-28T00:52:54.512Z,10.50
2022-09-28T00:55:28.023Z,6.82
2022-09-28T00:57:58.908Z,9.43
2022-09-28T01:00:28.417Z,8.43
2022-09-28T01:02:56.531Z,7.10
2022-09-28T01:05:24.951Z,7.60
2022-09-28T01:07:52.874Z,11.00
2022-09-28T01:10:20.724Z,6.78
2022-09-28T01:12:48.623Z,9.23
2022-09-28T01:15:16.769Z,9.68
2022-09-28T01:17:55.290Z,12.18
2022-09-28T01:23:18.991Z,13.95
2022-09-28T01:25:52.514Z,11.27
2022-09-28T01:28:22.809Z,13.57
2022-09-28T01:30:58.012Z,10.95
2022-09-28T01:33:29.097Z,10.70
2022-09-28T01:36:00.770Z,12.32
2022-09-28T01:38:31.422Z,15.25
2022-09-28T01:41:00.050Z,14.57
2022-09-28T01:43:31.529Z,12.85
2022-09-28T01:46:02.036Z,13.40
2022-09-28T01:48:33.442Z,13.30
2022-09-28T01:51:06.828Z,15.10
2022-09-28T01:53:38.459Z,15.23
2022-09-28T01:56:12.515Z,17.52
2022-09-28T01:58:45.747Z,14.07
2022-09-28T02:01:17.211Z,17.05
2022-09-28T02:03:50.216Z,24.65
2022-09-28T02:08:51.891Z,17.10
2022-09-28T02:11:21.760Z,17.83
2022-09-28T02:13:56.784Z,18.88
2022-09-28T02:16:31.403Z,21.85
2022-09-28T02:18:59.538Z,19.23
2022-09-28T02:21:29.237Z,21.02
2022-09-28T02:23:59.771Z,21.98
2022-09-28T02:26:31.671Z,21.70
2022-09-28T02:29:01.123Z,20.67
2022-09-28T02:31:29.426Z,21.88
2022-09-28T02:33:58.558Z,22.88
2022-09-28T02:36:27.070Z,21.40
2022-09-28T02:38:55.334Z,22.80
2022-09-28T02:41:31.558Z,21.15
2022-09-28T02:44:08.643Z,23.17
2022-09-28T02:46:43.451Z,25.08
2022-09-28T02:49:26.429Z,22.52
2022-09-28T02:52:06.637Z,21.95
2022-09-28T02:54:52.751Z,26.75
2022-09-28T02:57:29.380Z,22.92
2022-09-28T03:00:05.541Z,22.67
2022-09-28T03:02:36.683Z,21.95
2022-09-28T03:05:13.474Z,21.50
2022-09-28T03:07:44.851Z,23.92
2022-09-28T03:10:16.738Z,23.67
2022-09-28T03:12:46.884Z,22.13
2022-09-28T03:15:22.564Z,21.52
2022-09-28T03:17:50.726Z,21.70
2022-09-28T03:20:19.024Z,21.85
2022-09-28T03:23:05.927Z,21.92
2022-09-28T03:25:34.883Z,22.10
2022-09-28T03:28:03.210Z,22.08
2022-09-28T03:30:36.135Z,24.63
2022-09-28T03:33:04.395Z,21.35
2022-09-28T03:35:33.637Z,25.73
2022-09-28T03:38:01.509Z,21.20
2022-09-28T03:40:31.753Z,23.70
2022-09-28T03:43:01.136Z,23.33
2022-09-28T03:45:29.255Z,23.50
2022-09-28T03:47:58.726Z,24.05
2022-09-28T03:50:26.635Z,26.08
2022-09-28T03:52:54.535Z,21.42
2022-09-28T03:55:22.392Z,22.42
2022-09-28T03:57:55.635Z,23.55
2022-09-28T04:00:23.874Z,21.23
2022-09-28T04:02:51.858Z,23.45
2022-09-28T04:05:21.077Z,21.50
2022-09-28T04:07:48.998Z,25.90
2022-09-28T04:10:17.281Z,21.30
2022-09-28T04:12:45.906Z,24.92
2022-09-28T04:15:15.615Z,19.88
2022-09-28T04:17:44.816Z,23.67
2022-09-28T04:20:27.251Z,24.33
2022-09-28T04:23:04.280Z,25.45
2022-09-28T04:25:32.297Z,21.30
2022-09-28T04:28:17.452Z,22.75
2022-09-28T04:30:47.517Z,24.90
2022-09-28T04:33:15.370Z,22.20
2022-09-28T04:35:44.604Z,26.77
2022-09-28T04:38:12.515Z,25.35
2022-09-28T04:40:41.893Z,26.13
2022-09-28T04:43:09.769Z,26.90
2022-09-28T04:45:37.741Z,24.73
2022-09-28T04:48:09.662Z,27.23
2022-09-28T04:50:55.822Z,22.08
2022-09-28T04:53:24.269Z,26.58
2022-09-28T04:55:59.490Z,26.08
2022-09-28T04:58:28.130Z,23.98
2022-09-28T05:00:59.815Z,26.52
2022-09-28T05:03:51.219Z,23.35
2022-09-28T05:06:35.858Z,23.63
2022-09-28T05:09:06.944Z,28.67
2022-09-28T05:11:34.774Z,23.38
2022-09-28T05:14:03.088Z,27.88
2022-09-28T05:16:33.654Z,25.95
2022-09-28T05:19:20.379Z,27.33
2022-09-28T05:21:49.815Z,25.50
2022-09-28T05:24:17.737Z,25.92
2022-09-28T05:26:51.002Z,29.42
2022-09-28T05:29:19.755Z,25.42
2022-09-28T05:31:50.286Z,28.45
2022-09-28T05:34:23.697Z,26.33
2022-09-28T05:36:52.978Z,29.35
2022-09-28T05:39:21.076Z,27.73
2022-09-28T05:41:48.963Z,24.00
2022-09-28T05:44:16.982Z,26.15
2022-09-28T05:46:45.313Z,30.75
2022-09-28T05:49:13.975Z,28.75
2022-09-28T05:51:41.824Z,29.40
2022-09-28T05:54:11.810Z,28.27
2022-09-28T05:56:42.801Z,29.50
2022-09-28T05:59:12.065Z,27.23
2022-09-28T06:01:40.172Z,26.58
2022-09-28T06:04:10.415Z,26.52
2022-09-28T06:06:38.832Z,24.50
2022-09-28T06:09:07.110Z,25.50
2022-09-28T06:11:53.367Z,22.50
2022-09-28T06:14:28.571Z,24.67
2022-09-28T06:16:56.454Z,24.05
2022-09-28T06:19:24.410Z,20.90
2022-09-28T06:22:10.651Z,20.50
2022-09-28T06:24:45.988Z,23.33
2022-09-28T06:27:15.211Z,21.80
2022-09-28T06:29:43.415Z,21.77
2022-09-28T06:32:12.357Z,21.98
2022-09-28T06:34:42.764Z,19.50
2022-09-28T06:37:10.705Z,20.05
2022-09-28T06:39:38.624Z,19.42
2022-09-28T06:42:06.820Z,18.85
2022-09-28T06:44:54.490Z,19.88
2022-09-28T06:47:43.390Z,20.85
2022-09-28T06:50:35.884Z,18.45
2022-09-28T06:53:28.210Z,17.27
2022-09-28T06:56:03.288Z,18.42
2022-09-28T06:58:32.294Z,19.23
2022-09-28T07:01:02.493Z,16.38
2022-09-28T07:03:37.262Z,19.80
2022-09-28T07:06:47.942Z,17.98
2022-09-28T07:09:37.291Z,14.10
2022-09-28T07:12:13.399Z,12.98
2022-09-28T07:15:02.332Z,15.40
2022-09-28T07:17:35.334Z,13.27
2022-09-28T07:20:18.443Z,13.63
2022-09-28T07:22:47.905Z,15.63
2022-09-28T07:25:20.330Z,12.13
2022-09-28T07:28:01.484Z,12.73
2022-09-28T07:31:04.993Z,13.55
2022-09-28T07:34:00.557Z,14.23
2022-09-28T07:39:03.854Z,12.57
2022-09-28T07:41:33.450Z,12.65
2022-09-28T07:44:06.496Z,10.18
2022-09-28T07:46:36.910Z,12.43
2022-09-28T07:49:25.456Z,14.20
2022-09-28T07:52:14.273Z,10.85
2022-09-28T07:55:07.514Z,10.85
2022-09-28T07:57:56.300Z,9.65
2022-09-28T08:00:48.349Z,10.18
2022-09-28T08:03:18.006Z,12.32
2022-09-28T08:05:48.047Z,9.70
2022-09-28T08:08:16.266Z,10.90
2022-09-28T08:10:47.295Z,9.90
2022-09-28T08:13:33.878Z,10.75
2022-09-28T08:16:34.223Z,12.98
2022-09-28T08:19:12.299Z,9.55
2022-09-28T08:21:46.182Z,9.82
2022-09-28T08:24:16.528Z,6.97
2022-09-28T08:26:45.442Z,9.05
2022-09-28T08:29:16.916Z,11.93
2022-09-28T08:32:01.590Z,6.97
2022-09-28T08:34:36.690Z,7.65
2022-09-28T08:37:09.712Z,7.47
2022-09-28T08:40:09.420Z,6.30
2022-09-28T08:42:48.984Z,6.28
2022-09-28T08:45:52.352Z,8.45
2022-09-28T08:49:13.530Z,4.68
2022-09-28T08:52:00.719Z,6.50
2022-09-28T08:54:56.718Z,5.18
2022-09-28T08:57:35.275Z,6.03
2022-09-28T09:00:09.596Z,6.05
2022-09-28T09:02:40.541Z,5.65
2022-09-28T09:05:15.922Z,4.35
2022-09-28T09:08:23.353Z,5.28
2022-09-28T09:10:54.198Z,6.40
2022-09-28T09:13:43.183Z,8.05
2022-09-28T09:16:19.024Z,5.60
2022-09-28T09:19:17.395Z,5.97
2022-09-28T09:22:11.708Z,5.95
2022-09-28T09:24:44.807Z,7.18
2022-09-28T09:27:36.783Z,5.60
2022-09-28T09:30:07.548Z,8.05
2022-09-28T09:35:23.410Z,2.97
2022-09-28T09:38:07.058Z,5.30
2022-09-28T09:41:00.807Z,4.22
2022-09-28T09:44:19.955Z,4.43
2022-09-28T09:47:00.693Z,4.15
2022-09-28T09:49:40.375Z,5.55
2022-09-28T09:52:14.608Z,4.50
2022-09-28T09:54:45.783Z,4.47
2022-09-28T09:57:30.376Z,7.28
2022-09-28T10:00:28.996Z,6.65
2022-09-28T10:03:18.366Z,4.80
2022-09-28T10:05:49.895Z,3.58
2022-09-28T10:08:19.949Z,4.50
2022-09-28T10:10:50.847Z,4.85
2022-09-28T10:13:21.000Z,6.17
2022-09-28T10:15:51.767Z,4.30
2022-09-28T10:18:30.802Z,4.03
2022-09-28T10:21:14.267Z,2.30
2022-09-28T10:24:03.260Z,4.50
2022-09-28T10:26:36.394Z,2.67
2022-09-28T10:29:07.187Z,5.43
2022-09-28T10:31:38.432Z,4.80
2022-09-28T10:34:14.796Z,2.97
2022-09-28T10:36:55.378Z,3.50
2022-09-28T10:39:36.618Z,2.78
2022-09-28T10:42:07.799Z,6.60
2022-09-28T10:44:49.936Z,5.75
2022-09-28T10:47:48.687Z,2.63
2022-09-28T10:50:22.422Z,5.57
2022-09-28T10:52:54.656Z,4.53
2022-09-28T10:55:42.495Z,3.63
2022-09-28T10:58:25.696Z,3.85
2022-09-28T11:00:54.541Z,3.38
2022-09-28T11:03:27.052Z,3.63
2022-09-28T11:05:59.579Z,6.22
2022-09-28T11:08:31.297Z,4.22
2022-09-28T11:11:10.211Z,2.80
2022-09-28T11:13:43.647Z,5.05
2022-09-28T11:16:29.616Z,2.72
2022-09-28T11:19:05.207Z,2.80
2022-09-28T11:21:43.103Z,3.63
2022-09-28T11:24:21.134Z,3.35
2022-09-28T11:26:52.531Z,3.53
2022-09-28T11:29:26.751Z,2.22
2022-09-28T11:32:16.101Z,3.83
2022-09-28T11:35:25.997Z,2.17
2022-09-28T11:38:19.602Z,3.25
2022-09-28T11:41:32.471Z,1.88
2022-09-28T11:44:16.229Z,3.70
2022-09-28T11:46:52.519Z,2.55
2022-09-28T11:49:28.646Z,4.88
2022-09-28T11:52:00.838Z,4.22
2022-09-28T11:54:33.705Z,3.58
2022-09-28T11:57:05.039Z,3.63
2022-09-28T11:59:35.626Z,4.10
2022-09-28T12:02:11.121Z,4.32
2022-09-28T12:04:46.449Z,4.43
2022-09-28T12:07:19.950Z,2.65
2022-09-28T12:09:52.989Z,5.15
2022-09-28T12:12:26.029Z,6.47
2022-09-28T12:14:58.613Z,1.98
2022-09-28T12:17:30.084Z,4.88
2022-09-28T12:20:02.268Z,7.40
2022-09-28T12:22:36.041Z,6.13
2022-09-28T12:25:05.457Z,6.38
2022-09-28T12:27:39.047Z,6.18
2022-09-28T12:30:14.147Z,9.10
2022-09-28T12:32:45.586Z,9.88
2022-09-28T12:35:16.133Z,7.47
2022-09-28T12:37:58.632Z,10.68
2022-09-28T12:40:37.228Z,9.07
2022-09-28T12:43:21.358Z,8.45
2022-09-28T12:46:12.357Z,10.55
2022-09-28T12:50:20.136Z,8.45
2022-09-28T12:52:00.096Z,6.18
2022-09-28T12:54:44.216Z,6.78
2022-09-28T12:57:39.298Z,6.25
2022-09-28T13:00:10.518Z,10.27
2022-09-28T13:03:00.835Z,12.40
2022-09-28T13:05:41.306Z,8.82
2022-09-28T13:08:12.188Z,11.85
2022-09-28T13:10:42.982Z,8.60
2022-09-28T13:13:23.129Z,10.35
2022-09-28T13:15:56.360Z,8.75
2022-09-28T13:18:29.275Z,9.75
2022-09-28T13:23:35.727Z,8.35
2022-09-28T13:26:23.809Z,6.78
2022-09-28T13:28:54.738Z,8.93
2022-09-28T13:31:30.899Z,7.95
2022-09-28T13:34:01.469Z,7.88
2022-09-28T13:36:37.911Z,8.73
2022-09-28T13:39:48.685Z,7.90
2022-09-28T13:42:41.504Z,7.82
2022-09-28T13:45:18.891Z,5.45
2022-09-28T13:47:59.656Z,8.57
2022-09-28T13:50:39.511Z,6.25
2022-09-28T13:53:16.401Z,6.57
2022-09-28T13:55:54.755Z,6.88
2022-09-28T13:58:26.097Z,5.85
2022-09-28T14:00:57.890Z,5.72
2022-09-28T14:03:28.309Z,6.18
2022-09-28T14:06:09.577Z,6.18
2022-09-28T14:08:45.618Z,7.57
2022-09-28T14:11:26.343Z,12.82
2022-09-28T14:14:05.837Z,8.48
2022-09-28T14:16:35.198Z,7.35
2022-09-28T14:19:06.958Z,5.63
2022-09-28T14:22:01.696Z,8.02
2022-09-28T14:24:46.207Z,5.57
2022-09-28T14:27:42.780Z,3.67
2022-09-28T14:30:26.884Z,4.55
2022-09-28T14:32:57.508Z,3.03
2022-09-28T14:35:29.665Z,3.40
2022-09-28T14:38:18.799Z,5.10
2022-09-28T14:41:10.580Z,6.32
2022-09-28T14:43:53.923Z,4.18
2022-09-28T14:46:37.392Z,5.25
2022-09-28T14:49:07.284Z,4.72
2022-09-28T14:52:06.671Z,5.18
2022-09-28T14:54:45.264Z,5.15
2022-09-28T14:57:33.973Z,3.95
2022-09-28T15:00:10.493Z,4.25
2022-09-28T15:02:40.291Z,3.85
2022-09-28T15:05:17.193Z,2.47
2022-09-28T15:07:47.960Z,2.72
2022-09-28T15:10:27.736Z,3.53
2022-09-28T15:12:57.201Z,4.78
2022-09-28T15:15:32.194Z,4.78
2022-09-28T15:18:16.415Z,3.78
2022-09-28T15:20:47.110Z,6.82
2022-09-28T15:23:34.810Z,4.63
2022-09-28T15:26:04.102Z,4.68
2022-09-28T15:28:32.102Z,4.95
2022-09-28T15:31:01.130Z,5.50
2022-09-28T15:33:49.324Z,7.90
2022-09-28T15:36:21.127Z,6.30
2022-09-28T15:38:56.844Z,5.15
2022-09-28T15:41:25.736Z,5.00
2022-09-28T15:44:23.494Z,4.40
2022-09-28T15:46:52.135Z,5.15
2022-09-28T15:49:26.936Z,4.28
2022-09-28T15:51:56.536Z,5.25
2022-09-28T15:54:26.319Z,4.85
2022-09-28T15:56:57.731Z,5.07
2022-09-28T15:59:31.838Z,6.18
2022-09-28T16:02:08.277Z,4.95
2022-09-28T16:04:40.545Z,4.43
2022-09-28T16:07:24.381Z,5.90
2022-09-28T16:10:01.626Z,6.65
2022-09-28T16:12:41.208Z,6.35
2022-09-28T16:15:18.140Z,4.50
2022-09-28T16:17:51.029Z,4.82
2022-09-28T16:22:50.365Z,5.07
2022-09-28T16:25:23.001Z,6.28
2022-09-28T16:27:51.827Z,4.97
2022-09-28T16:30:24.114Z,5.75
2022-09-28T16:32:54.213Z,5.43
2022-09-28T16:35:26.517Z,4.32
2022-09-28T16:38:03.397Z,6.80
2022-09-28T16:40:32.502Z,8.10
2022-09-28T16:43:03.055Z,4.55
2022-09-28T16:45:31.131Z,6.78
2022-09-28T16:47:59.015Z,12.88
2022-09-28T16:50:28.223Z,6.25
2022-09-28T16:53:27.607Z,5.40
2022-09-28T16:55:55.543Z,5.25
2022-09-28T16:58:25.074Z,6.93
2022-09-28T17:00:54.534Z,7.25
2022-09-28T17:03:23.380Z,7.30
2022-09-28T17:05:53.538Z,6.60
2022-09-28T17:08:22.551Z,8.15
2022-09-28T17:11:14.519Z,9.60
2022-09-28T17:13:41.503Z,10.10
2022-09-28T17:16:13.134Z,8.98
2022-09-28T17:18:41.261Z,10.23
2022-09-28T17:21:15.666Z,11.70
2022-09-28T17:23:43.739Z,11.13
2022-09-28T17:26:18.547Z,11.70
2022-09-28T17:28:46.755Z,13.73
2022-09-28T17:31:16.666Z,11.90
2022-09-28T17:33:44.880Z,14.63
2022-09-28T17:36:16.457Z,9.18
2022-09-28T17:38:44.919Z,13.65
2022-09-28T17:41:16.807Z,13.98
2022-09-28T17:43:47.434Z,13.77
2022-09-28T17:46:26.310Z,11.50
2022-09-28T17:48:57.514Z,11.07
2022-09-28T17:51:27.274Z,12.93
2022-09-28T17:53:56.113Z,9.23
2022-09-28T17:56:27.489Z,14.07
2022-09-28T17:59:00.593Z,11.38
2022-09-28T18:01:33.746Z,14.43
2022-09-28T18:04:02.534Z,10.10
2022-09-28T18:06:33.511Z,11.85
2022-09-28T18:09:01.843Z,11.82
2022-09-28T18:11:29.797Z,11.05
2022-09-28T18:13:57.753Z,10.65
2022-09-28T18:16:27.796Z,11.90
2022-09-28T18:18:55.876Z,10.32
2022-09-28T18:21:23.806Z,10.57
2022-09-28T18:23:53.058Z,9.85
2022-09-28T18:26:20.923Z,11.85
2022-09-28T18:28:48.780Z,11.60
2022-09-28T18:31:19.207Z,12.50
2022-09-28T18:33:48.265Z,12.55
2022-09-28T18:36:16.324Z,13.55
2022-09-28T18:38:44.208Z,11.02
2022-09-28T18:41:16.384Z,11.63
2022-09-28T18:43:48.864Z,12.57
2022-09-28T18:46:17.675Z,13.32
2022-09-28T18:48:47.368Z,14.77
2022-09-28T18:51:15.461Z,13.15
2022-09-28T18:53:43.577Z,11.23
2022-09-28T18:56:14.871Z,11.85
2022-09-28T18:58:43.810Z,10.55
2022-09-28T19:01:29.355Z,9.93
2022-09-28T19:04:00.036Z,11.88
2022-09-28T19:06:28.815Z,11.52
2022-09-28T19:08:57.898Z,13.27
2022-09-28T19:11:27.651Z,12.73
2022-09-28T19:13:56.554Z,11.40
2022-09-28T19:16:26.034Z,12.00
2022-09-28T19:18:54.178Z,11.30
2022-09-28T19:21:22.386Z,10.70
2022-09-28T19:23:53.559Z,10.77
2022-09-28T19:26:23.499Z,10.05
2022-09-28T19:28:53.546Z,9.27
2022-09-28T19:31:22.512Z,10.27
2022-09-28T19:33:50.835Z,10.82
2022-09-28T19:36:21.786Z,10.38
2022-09-28T19:38:49.682Z,14.48
2022-09-28T19:41:39.406Z,12.52
2022-09-28T19:44:13.483Z,12.30
2022-09-28T19:46:41.885Z,13.77
2022-09-28T19:49:11.353Z,11.48
2022-09-28T19:51:51.477Z,13.85
2022-09-28T19:54:33.149Z,12.60
2022-09-28T19:57:07.578Z,12.15
2022-09-28T19:59:37.959Z,13.30
2022-09-28T20:02:07.490Z,12.80
2022-09-28T20:04:35.791Z,11.05
2022-09-28T20:07:04.230Z,12.95
2022-09-28T20:09:32.629Z,10.77
2022-09-28T20:12:00.437Z,14.40
2022-09-28T20:14:33.149Z,14.38
2022-09-28T20:17:05.909Z,14.90
2022-09-28T20:19:33.797Z,10.48
2022-09-28T20:22:02.991Z,12.98
2022-09-28T20:24:31.574Z,13.73
2022-09-28T20:27:01.367Z,13.75
2022-09-28T20:29:31.428Z,13.40
2022-09-28T20:32:00.376Z,11.85
2022-09-28T20:34:29.919Z,13.65
2022-09-28T20:36:57.804Z,15.35
2022-09-28T20:39:26.103Z,14.13
2022-09-28T20:41:56.254Z,16.65
2022-09-28T20:44:24.442Z,16.40
2022-09-28T20:46:52.655Z,13.05
2022-09-28T20:49:20.790Z,14.23
2022-09-28T20:51:50.067Z,15.18
2022-09-28T20:54:18.295Z,13.20
2022-09-28T20:56:48.066Z,14.73
2022-09-28T20:59:16.466Z,15.75
2022-09-28T21:01:44.521Z,14.88
2022-09-28T21:04:12.697Z,16.65
2022-09-28T21:06:42.184Z,13.63
2022-09-28T21:09:13.047Z,13.10
2022-09-28T21:11:41.488Z,13.75
2022-09-28T21:14:10.320Z,15.85
2022-09-28T21:16:38.820Z,16.58
2022-09-28T21:19:06.638Z,15.70
2022-09-28T21:21:34.739Z,16.13
2022-09-28T21:24:03.112Z,15.50
2022-09-28T21:26:32.924Z,15.07
2022-09-28T21:29:02.035Z,19.10
2022-09-28T21:31:32.428Z,15.50
2022-09-28T21:34:00.836Z,14.68
2022-09-28T21:36:28.859Z,17.17
2022-09-28T21:38:56.777Z,14.80
2022-09-28T21:41:24.785Z,15.35
2022-09-28T21:43:54.022Z,17.83
2022-09-28T21:46:21.964Z,17.17
2022-09-28T21:48:53.354Z,15.98
2022-09-28T21:51:21.517Z,14.93
2022-09-28T21:53:49.710Z,14.07
2022-09-28T21:56:17.639Z,16.80
2022-09-28T21:58:45.451Z,16.17
2022-09-28T22:01:16.519Z,15.70
2022-09-28T22:03:46.572Z,13.52
2022-09-28T22:06:15.168Z,15.65
2022-09-28T22:08:43.008Z,15.15
2022-09-28T22:11:12.418Z,16.10
2022-09-28T22:13:42.146Z,14.32
2022-09-28T22:16:10.650Z,14.65
2022-09-28T22:18:40.490Z,15.93
2022-09-28T22:21:10.005Z,16.13
2022-09-28T22:23:38.837Z,16.98
2022-09-28T22:26:08.399Z,15.63
2022-09-28T22:28:36.323Z,14.18
2022-09-28T22:31:04.895Z,16.25
2022-09-28T22:33:32.770Z,16.48
2022-09-28T22:36:02.470Z,15.32
2022-09-28T22:38:32.510Z,15.15
2022-09-28T22:41:00.523Z,17.08
2022-09-28T22:43:28.528Z,15.73
2022-09-28T22:46:03.314Z,15.75
2022-09-28T22:48:31.320Z,15.55
2022-09-28T22:50:59.501Z,16.25
2022-09-28T22:53:29.453Z,21.25
2022-09-28T22:55:57.774Z,14.63
2022-09-28T22:58:26.101Z,16.52
2022-09-28T23:00:53.979Z,17.33
2022-09-28T23:03:21.827Z,20.27
2022-09-28T23:05:54.005Z,15.77
2022-09-28T23:08:21.947Z,16.45
2022-09-28T23:10:51.710Z,17.60
2022-09-28T23:13:19.543Z,14.48
2022-09-28T23:15:55.961Z,16.80
2022-09-28T23:18:23.992Z,15.15
2022-09-28T23:20:55.313Z,14.05
2022-09-28T23:23:23.338Z,17.33
2022-09-28T23:25:52.679Z,15.40
2022-09-28T23:28:22.233Z,16.75
2022-09-28T23:30:50.688Z,18.67
2022-09-28T23:33:20.030Z,19.08
2022-09-28T23:35:48.167Z,18.25
2022-09-28T23:38:17.917Z,13.77
2022-09-28T23:40:46.328Z,14.23
2022-09-28T23:43:15.803Z,21.88
2022-09-28T23:45:43.963Z,25.45
2022-09-28T23:48:14.919Z,17.67
2022-09-28T23:50:43.078Z,17.17
2022-09-28T23:53:11.799Z,20.90
2022-09-28T23:55:39.684Z,18.35
2022-09-28T23:58:07.691Z,12.90
